createdAt,value
2018-05-16T00:01:02.968Z,7.93
2018-05-16T00:03:31.212Z,7.90
2018-05-16T00:06:00.936Z,6.73
2018-05-16T00:08:29.188Z,8.00
2018-05-16T00:10:57.413Z,6.57
2018-05-16T00:13:25.693Z,7.67
2018-05-16T00:15:53.945Z,6.93
2018-05-16T00:18:23.440Z,7.20
2018-05-16T00:20:53.637Z,6.97
2018-05-16T00:23:21.905Z,7.40
2018-05-16T00:25:50.136Z,6.63
2018-05-16T00:28:20.441Z,6.13
2018-05-16T00:30:48.691Z,4.80
2018-05-16T00:33:16.976Z,6.67
2018-05-16T00:35:45.251Z,6.10
2018-05-16T00:38:13.504Z,6.20
2018-05-16T00:40:41.748Z,6.13
2018-05-16T00:43:10.030Z,5.33
2018-05-16T00:45:38.272Z,6.00
2018-05-16T00:48:06.531Z,5.50
2018-05-16T00:50:34.797Z,4.67
2018-05-16T00:53:03.807Z,5.00
2018-05-16T00:55:32.839Z,5.40
2018-05-16T00:58:01.932Z,5.10
2018-05-16T01:00:30.190Z,5.03
2018-05-16T01:02:58.440Z,4.97
2018-05-16T01:05:27.292Z,4.73
2018-05-16T01:07:55.548Z,4.47
2018-05-16T01:10:23.807Z,4.37
2018-05-16T01:12:52.059Z,5.17
2018-05-16T01:15:20.301Z,5.40
2018-05-16T01:17:48.556Z,5.17
2018-05-16T01:20:17.718Z,4.90
2018-05-16T01:22:46.084Z,5.40
2018-05-16T01:25:14.924Z,4.87
2018-05-16T01:27:43.192Z,4.93
2018-05-16T01:30:11.436Z,5.23
2018-05-16T01:32:39.664Z,4.97
2018-05-16T01:35:07.920Z,5.40
2018-05-16T01:37:36.768Z,5.30
2018-05-16T01:40:05.109Z,5.20
2018-05-16T01:42:34.042Z,5.33
2018-05-16T01:45:03.056Z,4.80
2018-05-16T01:47:31.770Z,5.70
2018-05-16T01:50:00.032Z,5.40
2018-05-16T01:52:28.276Z,5.20
2018-05-16T01:54:58.027Z,5.63
2018-05-16T01:57:26.252Z,5.93
2018-05-16T01:59:54.545Z,5.80
2018-05-16T02:02:22.774Z,6.67
2018-05-16T02:04:51.617Z,5.93
2018-05-16T02:07:19.861Z,6.23
2018-05-16T02:09:48.112Z,6.77
2018-05-16T02:12:16.357Z,7.00
2018-05-16T02:14:44.626Z,7.70
2018-05-16T02:17:12.876Z,6.67
2018-05-16T02:19:41.212Z,6.37
2018-05-16T02:22:10.226Z,6.67
2018-05-16T02:24:39.251Z,6.40
2018-05-16T02:27:07.530Z,6.10
2018-05-16T02:29:35.793Z,6.47
2018-05-16T02:32:04.799Z,6.30
2018-05-16T02:34:33.800Z,6.13
2018-05-16T02:37:02.029Z,6.63
2018-05-16T02:39:30.300Z,6.63
2018-05-16T02:41:58.552Z,6.17
2018-05-16T02:44:26.809Z,6.40
2018-05-16T02:46:55.829Z,5.50
2018-05-16T02:49:24.084Z,6.20
2018-05-16T02:51:53.390Z,5.37
2018-05-16T02:54:21.636Z,5.53
2018-05-16T02:56:49.873Z,5.57
2018-05-16T02:59:18.104Z,5.40
2018-05-16T03:01:46.352Z,5.60
2018-05-16T03:04:14.635Z,5.80
2018-05-16T03:06:42.982Z,5.33
2018-05-16T03:09:11.963Z,5.53
2018-05-16T03:11:40.986Z,5.90
2018-05-16T03:14:09.223Z,5.97
2018-05-16T03:16:37.932Z,5.43
2018-05-16T03:19:06.188Z,5.90
2018-05-16T03:21:34.521Z,5.63
2018-05-16T03:24:03.513Z,5.73
2018-05-16T03:26:32.537Z,5.97
2018-05-16T03:29:01.485Z,7.43
2018-05-16T03:31:29.819Z,5.67
2018-05-16T03:33:58.052Z,5.63
2018-05-16T03:36:26.314Z,6.13
2018-05-16T03:38:54.565Z,5.83
2018-05-16T03:41:22.821Z,6.20
2018-05-16T03:43:51.064Z,6.00
2018-05-16T03:46:19.348Z,6.23
2018-05-16T03:48:47.568Z,5.77
2018-05-16T03:51:15.831Z,6.00
2018-05-16T03:53:44.875Z,6.30
2018-05-16T03:56:14.022Z,6.57
2018-05-16T03:58:54.153Z,7.20
2018-05-16T04:01:34.761Z,6.80
2018-05-16T04:04:14.844Z,6.87
2018-05-16T04:06:43.100Z,6.70
2018-05-16T04:09:11.349Z,6.67
2018-05-16T04:11:39.622Z,6.70
2018-05-16T04:14:07.877Z,7.40
2018-05-16T04:16:36.428Z,7.37
2018-05-16T04:19:06.244Z,7.57
2018-05-16T04:21:34.500Z,7.00
2018-05-16T04:24:04.359Z,8.23
2018-05-16T04:26:32.613Z,7.83
2018-05-16T04:29:01.616Z,7.87
2018-05-16T04:31:29.881Z,8.73
2018-05-16T04:33:58.893Z,7.63
2018-05-16T04:36:27.922Z,7.70
2018-05-16T04:38:56.220Z,8.23
2018-05-16T04:41:25.374Z,7.63
2018-05-16T04:43:53.661Z,7.50
2018-05-16T04:46:21.921Z,8.03
2018-05-16T04:48:50.935Z,8.03
2018-05-16T04:51:19.199Z,9.00
2018-05-16T04:53:48.223Z,8.40
2018-05-16T04:56:17.233Z,8.33
2018-05-16T04:58:45.469Z,7.87
2018-05-16T05:01:13.742Z,8.10
2018-05-16T05:03:41.981Z,7.60
2018-05-16T05:06:10.255Z,7.40
2018-05-16T05:08:38.784Z,8.83
2018-05-16T05:11:07.041Z,8.70
2018-05-16T05:13:35.858Z,8.50
2018-05-16T05:16:04.130Z,8.33
2018-05-16T05:18:33.370Z,8.63
2018-05-16T05:21:02.303Z,8.80
2018-05-16T05:23:30.564Z,8.60
2018-05-16T05:25:59.569Z,8.90
2018-05-16T05:28:27.827Z,8.50
2018-05-16T05:30:56.845Z,9.17
2018-05-16T05:33:25.873Z,8.47
2018-05-16T05:35:54.160Z,9.37
2018-05-16T05:38:22.416Z,8.43
2018-05-16T05:40:50.662Z,9.23
2018-05-16T05:43:19.750Z,8.50
2018-05-16T05:45:47.928Z,8.67
2018-05-16T05:48:16.244Z,8.47
2018-05-16T05:50:44.499Z,9.20
2018-05-16T05:53:12.743Z,8.43
2018-05-16T05:55:41.786Z,8.53
2018-05-16T05:58:10.034Z,8.83
2018-05-16T06:00:38.642Z,9.27
2018-05-16T06:03:06.927Z,8.90
2018-05-16T06:05:35.159Z,9.50
2018-05-16T06:08:03.441Z,9.40
2018-05-16T06:10:31.681Z,8.50
2018-05-16T06:13:00.721Z,9.03
2018-05-16T06:15:29.625Z,9.13
2018-05-16T06:17:57.890Z,8.87
2018-05-16T06:20:27.709Z,9.60
2018-05-16T06:22:56.078Z,8.03
2018-05-16T06:25:25.080Z,8.13
2018-05-16T06:27:53.938Z,7.73
2018-05-16T06:30:22.173Z,7.83
2018-05-16T06:32:50.468Z,7.00
2018-05-16T06:35:18.850Z,7.13
2018-05-16T06:37:47.156Z,7.80
2018-05-16T06:40:15.389Z,6.87
2018-05-16T06:42:43.658Z,8.20
2018-05-16T06:45:11.909Z,7.70
2018-05-16T06:47:40.166Z,7.82
2018-05-16T06:50:08.871Z,8.53
2018-05-16T06:52:37.156Z,7.97
2018-05-16T06:55:05.459Z,7.78
2018-05-16T06:57:34.478Z,7.03
2018-05-16T07:00:04.070Z,6.90
2018-05-16T07:02:32.858Z,7.43
2018-05-16T07:05:03.075Z,7.93
2018-05-16T07:07:32.831Z,7.33
2018-05-16T07:10:02.652Z,7.70
2018-05-16T07:12:32.432Z,8.00
2018-05-16T07:15:02.328Z,7.72
2018-05-16T07:17:31.190Z,8.75
2018-05-16T07:20:00.201Z,9.98
2018-05-16T07:22:29.042Z,9.40
2018-05-16T07:24:58.667Z,9.45
2018-05-16T07:27:29.563Z,8.85
2018-05-16T07:29:58.525Z,10.73
2018-05-16T07:32:28.146Z,8.68
2018-05-16T07:34:57.587Z,9.63
2018-05-16T07:37:26.555Z,8.88
2018-05-16T07:39:56.043Z,9.70
2018-05-16T07:42:24.909Z,8.55
2018-05-16T07:44:54.994Z,9.35
2018-05-16T07:47:24.012Z,9.25
2018-05-16T07:49:53.776Z,9.00
2018-05-16T07:52:24.245Z,8.63
2018-05-16T07:54:53.347Z,9.35
2018-05-16T07:57:22.417Z,9.13
2018-05-16T07:59:52.659Z,8.68
2018-05-16T08:02:21.668Z,8.50
2018-05-16T08:04:51.000Z,8.35
2018-05-16T08:07:20.990Z,9.48
2018-05-16T08:09:50.070Z,8.82
2018-05-16T08:12:19.947Z,8.10
2018-05-16T08:14:49.806Z,7.30
2018-05-16T08:17:18.691Z,7.47
2018-05-16T08:19:48.633Z,8.85
2018-05-16T08:22:18.690Z,8.15
2018-05-16T08:24:47.677Z,8.23
2018-05-16T08:27:16.904Z,8.73
2018-05-16T08:29:46.082Z,9.40
2018-05-16T08:32:15.059Z,8.63
2018-05-16T08:34:44.384Z,9.02
2018-05-16T08:37:14.422Z,9.55
2018-05-16T08:39:43.699Z,9.95
2018-05-16T08:42:13.420Z,8.77
2018-05-16T08:44:42.515Z,8.32
2018-05-16T08:47:11.931Z,8.93
2018-05-16T08:49:40.913Z,8.13
2018-05-16T08:52:11.031Z,9.05
2018-05-16T08:54:40.959Z,8.85
2018-05-16T08:57:09.844Z,8.95
2018-05-16T08:59:38.842Z,8.48
2018-05-16T09:02:07.739Z,7.78
2018-05-16T09:04:37.971Z,7.12
2018-05-16T09:07:06.798Z,5.57
2018-05-16T09:09:36.944Z,6.87
2018-05-16T09:12:06.695Z,6.30
2018-05-16T09:14:35.912Z,6.10
2018-05-16T09:17:05.725Z,6.00
2018-05-16T09:19:34.730Z,6.03
2018-05-16T09:22:03.601Z,6.68
2018-05-16T09:24:32.478Z,5.97
2018-05-16T09:27:04.085Z,7.60
2018-05-16T09:29:33.072Z,7.20
2018-05-16T09:32:02.187Z,7.45
2018-05-16T09:34:31.853Z,7.55
2018-05-16T09:37:01.602Z,7.70
2018-05-16T09:39:31.125Z,6.50
2018-05-16T09:42:00.255Z,7.97
2018-05-16T09:44:29.883Z,7.32
2018-05-16T09:47:00.321Z,6.93
2018-05-16T09:49:30.044Z,7.80
2018-05-16T09:51:59.723Z,7.87
2018-05-16T09:54:28.456Z,7.40
2018-05-16T09:56:58.373Z,7.70
2018-05-16T09:59:27.254Z,9.05
2018-05-16T10:01:58.018Z,7.00
2018-05-16T10:04:27.184Z,7.28
2018-05-16T10:06:57.216Z,7.57
2018-05-16T10:09:26.048Z,8.18
2018-05-16T10:11:55.061Z,8.40
2018-05-16T10:14:23.826Z,8.30
2018-05-16T10:16:53.093Z,7.93
2018-05-16T10:19:21.479Z,7.97
2018-05-16T10:21:49.743Z,8.25
2018-05-16T10:24:19.221Z,9.88
2018-05-16T10:26:47.493Z,8.68
2018-05-16T10:29:15.736Z,9.20
2018-05-16T10:31:44.067Z,8.82
2018-05-16T10:34:12.318Z,9.05
2018-05-16T10:36:40.645Z,9.02
2018-05-16T10:39:08.938Z,9.05
2018-05-16T10:41:37.978Z,6.78
2018-05-16T10:44:06.210Z,9.00
2018-05-16T10:46:34.482Z,7.20
2018-05-16T10:49:02.733Z,9.20
2018-05-16T10:51:31.801Z,10.45
2018-05-16T10:54:00.909Z,9.80
2018-05-16T10:56:29.175Z,9.55
2018-05-16T10:58:58.188Z,10.10
2018-05-16T11:01:26.518Z,9.88
2018-05-16T11:03:54.776Z,10.13
2018-05-16T11:06:23.045Z,9.68
2018-05-16T11:08:51.301Z,8.48
2018-05-16T11:11:19.566Z,8.80
2018-05-16T11:13:48.578Z,7.40
2018-05-16T11:16:17.626Z,9.73
2018-05-16T11:18:45.920Z,8.70
2018-05-16T11:21:14.233Z,8.95
2018-05-16T11:23:44.151Z,8.90
2018-05-16T11:26:12.412Z,8.35
2018-05-16T11:28:40.640Z,8.27
2018-05-16T11:31:08.910Z,7.32
2018-05-16T11:33:37.920Z,8.00
2018-05-16T11:36:06.163Z,9.32
2018-05-16T11:38:35.797Z,9.60
2018-05-16T11:41:04.066Z,8.98
2018-05-16T11:43:33.089Z,9.98
2018-05-16T11:46:01.333Z,9.57
2018-05-16T11:48:29.610Z,10.10
2018-05-16T11:50:57.845Z,9.88
2018-05-16T11:53:26.566Z,12.07
2018-05-16T11:55:54.849Z,12.85
2018-05-16T11:58:23.157Z,11.38
2018-05-16T12:00:52.280Z,10.48
2018-05-16T12:03:21.303Z,11.75
2018-05-16T12:05:49.560Z,14.23
2018-05-16T12:08:17.830Z,12.55
2018-05-16T12:10:46.858Z,11.07
2018-05-16T12:13:15.195Z,10.05
2018-05-16T12:15:44.228Z,11.07
2018-05-16T12:18:12.646Z,10.38
2018-05-16T12:20:40.892Z,9.88
2018-05-16T12:23:09.181Z,11.27
2018-05-16T12:25:37.896Z,11.20
2018-05-16T12:28:06.243Z,10.02
2018-05-16T12:30:35.266Z,9.43
2018-05-16T12:33:03.541Z,12.00
2018-05-16T12:35:31.780Z,13.00
2018-05-16T12:38:00.837Z,11.00
2018-05-16T12:40:29.083Z,11.70
2018-05-16T12:43:09.203Z,10.65
2018-05-16T12:45:38.312Z,10.30
2018-05-16T12:48:07.349Z,12.13
2018-05-16T12:50:35.584Z,12.05
2018-05-16T12:53:04.048Z,12.48
2018-05-16T12:55:32.307Z,10.63
2018-05-16T12:58:00.591Z,10.50
2018-05-16T13:00:29.116Z,9.77
2018-05-16T13:02:57.583Z,10.13
2018-05-16T13:05:25.821Z,11.00
2018-05-16T13:07:54.102Z,10.52
2018-05-16T13:10:22.372Z,9.45
2018-05-16T13:12:51.465Z,9.48
2018-05-16T13:15:19.684Z,10.40
2018-05-16T13:17:48.050Z,10.20
2018-05-16T13:20:16.609Z,10.45
2018-05-16T13:22:45.760Z,10.75
2018-05-16T13:25:14.240Z,10.00
2018-05-16T13:27:42.462Z,10.60
2018-05-16T13:30:10.730Z,10.52
2018-05-16T13:32:39.034Z,10.15
2018-05-16T13:35:07.285Z,10.63
2018-05-16T13:37:35.626Z,10.30
2018-05-16T13:40:03.916Z,10.00
2018-05-16T13:42:32.191Z,9.13
2018-05-16T13:45:01.076Z,9.43
2018-05-16T13:47:30.089Z,9.40
2018-05-16T13:49:58.444Z,9.90
2018-05-16T13:52:26.759Z,8.82
2018-05-16T13:54:55.400Z,8.07
2018-05-16T13:57:23.642Z,8.00
2018-05-16T13:59:52.496Z,7.23
2018-05-16T14:02:21.516Z,6.70
2018-05-16T14:04:49.812Z,5.87
2018-05-16T14:07:18.049Z,6.03
2018-05-16T14:09:46.315Z,6.10
2018-05-16T14:12:15.156Z,6.60
2018-05-16T14:14:43.432Z,6.20
2018-05-16T14:17:12.425Z,6.70
2018-05-16T14:19:41.441Z,7.50
2018-05-16T14:22:10.501Z,6.93
2018-05-16T14:24:38.764Z,7.72
2018-05-16T14:27:07.893Z,6.63
2018-05-16T14:29:36.923Z,6.57
2018-05-16T14:32:05.224Z,6.78
2018-05-16T14:34:33.616Z,6.55
2018-05-16T14:37:02.588Z,6.05
2018-05-16T14:39:30.828Z,6.50
2018-05-16T14:41:59.829Z,6.77
2018-05-16T14:44:28.092Z,6.40
2018-05-16T14:46:56.345Z,6.53
2018-05-16T14:49:25.238Z,7.03
2018-05-16T14:51:53.509Z,7.18
2018-05-16T14:54:21.784Z,7.10
2018-05-16T14:56:50.024Z,6.62
2018-05-16T14:59:18.364Z,7.18
2018-05-16T15:01:46.697Z,8.07
2018-05-16T15:04:14.887Z,7.53
2018-05-16T15:06:43.898Z,8.77
2018-05-16T15:09:12.774Z,7.20
2018-05-16T15:11:41.787Z,7.00
2018-05-16T15:14:11.670Z,7.20
2018-05-16T15:16:40.831Z,7.00
2018-05-16T15:19:09.080Z,7.13
2018-05-16T15:21:38.085Z,7.97
2018-05-16T15:24:07.103Z,7.13
2018-05-16T15:26:35.359Z,6.30
2018-05-16T15:29:04.386Z,6.75
2018-05-16T15:31:32.641Z,7.07
2018-05-16T15:34:01.642Z,6.73
2018-05-16T15:36:30.720Z,6.17
2018-05-16T15:38:59.675Z,7.30
2018-05-16T15:41:28.533Z,8.35
2018-05-16T15:43:56.788Z,7.70
2018-05-16T15:46:25.096Z,8.90
2018-05-16T15:48:54.108Z,9.35
2018-05-16T15:51:22.393Z,10.43
2018-05-16T15:53:50.739Z,9.65
2018-05-16T15:56:19.880Z,9.73
2018-05-16T15:58:48.166Z,9.50
2018-05-16T16:01:17.244Z,9.05
2018-05-16T16:03:46.243Z,9.43
2018-05-16T16:06:16.723Z,8.33
2018-05-16T16:08:44.975Z,10.52
2018-05-16T16:11:13.914Z,9.50
2018-05-16T16:13:42.161Z,9.57
2018-05-16T16:16:11.011Z,8.10
2018-05-16T16:18:40.113Z,9.50
2018-05-16T16:21:08.325Z,9.05
2018-05-16T16:23:36.579Z,8.43
2018-05-16T16:26:05.627Z,8.57
2018-05-16T16:28:33.877Z,8.85
2018-05-16T16:31:03.112Z,9.27
2018-05-16T16:33:32.211Z,10.00
2018-05-16T16:36:00.484Z,9.50
2018-05-16T16:38:28.740Z,10.10
2018-05-16T16:40:57.715Z,9.50
2018-05-16T16:43:26.731Z,10.25
2018-05-16T16:45:55.021Z,7.60
2018-05-16T16:48:23.268Z,9.40
2018-05-16T16:50:51.637Z,9.50
2018-05-16T16:53:20.892Z,9.05
2018-05-16T16:55:49.147Z,12.60
2018-05-16T16:58:18.190Z,11.38
2018-05-16T17:00:46.473Z,11.20
2018-05-16T17:03:14.726Z,10.15
2018-05-16T17:05:42.994Z,10.88
2018-05-16T17:08:12.091Z,12.27
2018-05-16T17:10:40.288Z,11.63
2018-05-16T17:13:08.589Z,12.50
2018-05-16T17:15:36.828Z,12.83
2018-05-16T17:18:05.869Z,12.57
2018-05-16T17:20:34.781Z,12.60
2018-05-16T17:23:03.116Z,12.85
2018-05-16T17:25:31.365Z,11.98
2018-05-16T17:27:59.649Z,12.98
2018-05-16T17:30:27.954Z,12.57
2018-05-16T17:32:56.172Z,11.77
2018-05-16T17:35:24.420Z,14.07
2018-05-16T17:37:53.516Z,13.63
2018-05-16T17:40:22.544Z,13.60
2018-05-16T17:42:50.824Z,14.70
2018-05-16T17:45:19.115Z,11.57
2018-05-16T17:47:47.434Z,12.87
2018-05-16T17:50:15.716Z,12.10
2018-05-16T17:52:44.564Z,13.67
2018-05-16T17:55:13.142Z,12.77
2018-05-16T17:57:43.061Z,10.97
2018-05-16T18:00:11.358Z,10.47
2018-05-16T18:02:40.357Z,8.43
2018-05-16T18:05:08.648Z,7.80
2018-05-16T18:07:37.261Z,5.97
2018-05-16T18:10:05.505Z,6.30
2018-05-16T18:12:33.781Z,6.20
2018-05-16T18:15:18.663Z,6.00
2018-05-16T18:17:47.740Z,5.87
2018-05-16T18:20:15.998Z,6.93
2018-05-16T18:22:45.031Z,5.70
2018-05-16T18:25:13.265Z,6.20
2018-05-16T18:27:42.437Z,6.53
2018-05-16T18:30:10.691Z,6.03
2018-05-16T18:32:38.952Z,6.80
2018-05-16T18:35:08.837Z,6.30
2018-05-16T18:37:38.784Z,6.93
2018-05-16T18:40:08.410Z,6.23
2018-05-16T18:42:36.745Z,5.97
2018-05-16T18:45:05.129Z,5.97
2018-05-16T18:47:33.389Z,5.90
2018-05-16T18:50:02.112Z,5.23
2018-05-16T18:52:30.388Z,6.30
2018-05-16T18:54:58.665Z,6.17
2018-05-16T18:57:27.010Z,6.63
2018-05-16T18:59:55.657Z,6.23
2018-05-16T19:02:23.908Z,6.17
2018-05-16T19:04:52.161Z,6.53
2018-05-16T19:07:20.536Z,7.80
2018-05-16T19:09:48.825Z,6.23
2018-05-16T19:12:17.833Z,6.70
2018-05-16T19:14:46.220Z,7.83
2018-05-16T19:17:14.481Z,7.60
2018-05-16T19:19:43.024Z,7.03
2018-05-16T19:22:11.296Z,6.90
2018-05-16T19:24:40.536Z,7.27
2018-05-16T19:27:09.632Z,7.23
2018-05-16T19:29:37.834Z,7.27
2018-05-16T19:32:06.090Z,7.13
2018-05-16T19:34:35.160Z,7.50
2018-05-16T19:37:03.435Z,7.07
2018-05-16T19:39:31.698Z,7.23
2018-05-16T19:41:59.981Z,7.27
2018-05-16T19:44:28.265Z,6.57
2018-05-16T19:46:56.518Z,7.20
2018-05-16T19:49:24.812Z,7.70
2018-05-16T19:51:53.058Z,8.00
2018-05-16T19:54:22.104Z,6.93
2018-05-16T19:56:50.342Z,7.77
2018-05-16T19:59:19.386Z,7.97
2018-05-16T20:01:47.653Z,7.30
2018-05-16T20:04:15.939Z,6.57
2018-05-16T20:06:44.924Z,7.20
2018-05-16T20:09:13.363Z,7.60
2018-05-16T20:11:42.378Z,8.00
2018-05-16T20:14:10.648Z,6.90
2018-05-16T20:16:38.896Z,7.00
2018-05-16T20:19:07.776Z,7.43
2018-05-16T20:21:36.028Z,7.10
2018-05-16T20:24:05.278Z,6.83
2018-05-16T20:26:33.506Z,8.10
2018-05-16T20:29:02.656Z,7.77
2018-05-16T20:31:31.812Z,7.60
2018-05-16T20:34:00.855Z,7.13
2018-05-16T20:36:29.167Z,7.43
2018-05-16T20:38:57.440Z,7.33
2018-05-16T20:41:27.469Z,6.77
2018-05-16T20:43:56.331Z,6.87
2018-05-16T20:46:25.346Z,7.00
2018-05-16T20:48:53.623Z,7.37
2018-05-16T20:51:21.895Z,7.87
2018-05-16T20:53:50.168Z,7.10
2018-05-16T20:56:18.506Z,6.97
2018-05-16T20:58:46.908Z,7.00
2018-05-16T21:01:15.825Z,7.57
2018-05-16T21:03:44.105Z,8.00
2018-05-16T21:06:12.369Z,7.77
2018-05-16T21:08:42.164Z,7.67
2018-05-16T21:11:11.237Z,7.50
2018-05-16T21:13:39.548Z,8.17
2018-05-16T21:16:07.830Z,7.13
2018-05-16T21:18:36.073Z,7.27
2018-05-16T21:21:04.336Z,7.33
2018-05-16T21:23:32.697Z,7.47
2018-05-16T21:26:01.716Z,6.93
2018-05-16T21:28:29.974Z,6.57
2018-05-16T21:30:59.612Z,6.70
2018-05-16T21:33:27.856Z,6.43
2018-05-16T21:35:56.892Z,5.63
2018-05-16T21:38:25.908Z,6.87
2018-05-16T21:40:54.172Z,7.10
2018-05-16T21:43:22.528Z,6.93
2018-05-16T21:45:51.542Z,7.00
2018-05-16T21:48:19.876Z,7.33
2018-05-16T21:50:48.133Z,8.27
2018-05-16T21:53:17.270Z,7.30
2018-05-16T21:55:45.547Z,8.23
2018-05-16T21:58:13.788Z,6.87
2018-05-16T22:00:42.061Z,7.77
2018-05-16T22:03:10.297Z,8.20
2018-05-16T22:05:39.171Z,7.30
2018-05-16T22:08:07.635Z,7.50
2018-05-16T22:10:36.026Z,7.40
2018-05-16T22:13:04.184Z,7.07
2018-05-16T22:15:32.452Z,7.73
2018-05-16T22:18:00.728Z,7.30
2018-05-16T22:20:29.760Z,6.93
2018-05-16T22:22:58.008Z,7.23
2018-05-16T22:25:29.638Z,6.57
2018-05-16T22:27:57.872Z,6.67
2018-05-16T22:30:32.628Z,6.90
2018-05-16T22:33:06.536Z,6.90
2018-05-16T22:35:40.455Z,6.27
2018-05-16T22:38:14.540Z,7.17
2018-05-16T22:40:48.431Z,6.53
2018-05-16T22:43:16.676Z,5.80
2018-05-16T22:45:45.975Z,5.83
2018-05-16T22:48:14.213Z,5.33
2018-05-16T22:50:42.479Z,5.57
2018-05-16T22:53:10.724Z,4.83
2018-05-16T22:55:40.121Z,4.53
2018-05-16T22:58:08.366Z,5.30
2018-05-16T23:00:36.618Z,4.97
2018-05-16T23:03:04.893Z,5.17
2018-05-16T23:05:33.943Z,4.37
2018-05-16T23:08:02.202Z,5.40
2018-05-16T23:10:30.503Z,5.17
2018-05-16T23:12:59.466Z,5.57
2018-05-16T23:15:27.735Z,5.50
2018-05-16T23:17:56.021Z,5.00
2018-05-16T23:20:25.024Z,4.70
2018-05-16T23:22:53.292Z,4.90
2018-05-16T23:25:22.380Z,5.10
2018-05-16T23:27:52.148Z,5.23
2018-05-16T23:30:20.433Z,5.30
2018-05-16T23:32:48.690Z,5.20
2018-05-16T23:35:16.953Z,4.70
2018-05-16T23:37:45.980Z,4.63
2018-05-16T23:40:14.241Z,4.70
2018-05-16T23:42:42.520Z,4.47
2018-05-16T23:45:10.765Z,4.17
2018-05-16T23:47:39.008Z,4.53
2018-05-16T23:50:07.274Z,4.40
2018-05-16T23:52:35.556Z,4.37
2018-05-16T23:55:04.745Z,4.30
2018-05-16T23:57:33.017Z,4.00
